Time;durP1;ratioP1;P1;durP2;ratioP2;P2;SDS_P1;SDS_P2;PMS_P1;PMS_P2;Temp;Humidity;BMP_temperature;BMP_pressure;BME280_temperature;BME280_humidity;BME280_pressure;Samples;Min_cycle;Max_cycle;Signal;HPM_P1;HPM_P2
2022/01/27 00:01:39;;;;;;;67.75;38.13;;;5.00;99.90;;;;;;4963328;28;20045;-90
2022/01/27 00:04:26;;;;;;;59.42;34.47;;;5.00;99.90;;;;;;4930581;28;20297;-93
2022/01/27 00:06:54;;;;;;;62.10;37.00;;;5.00;99.90;;;;;;4942237;28;20059;-92
2022/01/27 00:09:41;;;;;;;60.25;34.13;;;5.00;99.90;;;;;;4943239;28;20049;-87
2022/01/27 00:12:09;;;;;;;63.63;38.70;;;5.10;99.90;;;;;;4914124;28;20049;-89
2022/01/27 00:14:44;;;;;;;65.25;38.10;;;5.10;99.90;;;;;;4944273;28;20060;-89
2022/01/27 00:17:14;;;;;;;59.22;35.13;;;5.10;99.90;;;;;;4926940;28;20053;-87
2022/01/27 00:19:41;;;;;;;59.45;35.45;;;5.20;99.90;;;;;;4930033;28;20604;-91
2022/01/27 00:22:07;;;;;;;59.42;36.20;;;5.10;99.90;;;;;;4914925;28;20114;-89
2022/01/27 00:24:32;;;;;;;62.25;36.80;;;5.10;99.90;;;;;;4939546;28;20105;-89
2022/01/27 00:26:59;;;;;;;58.60;36.85;;;5.10;99.90;;;;;;4929984;28;20132;-86
2022/01/27 00:29:27;;;;;;;61.08;38.05;;;5.10;99.90;;;;;;4928638;28;20101;-92
2022/01/27 00:31:53;;;;;;;63.67;38.45;;;5.20;99.90;;;;;;4951551;28;20057;-88
2022/01/27 00:34:18;;;;;;;58.70;36.88;;;5.20;99.90;;;;;;4915434;28;20536;-87
2022/01/27 00:36:44;;;;;;;55.83;37.55;;;5.20;99.90;;;;;;4922883;28;20447;-89
2022/01/27 00:39:12;;;;;;;56.40;35.42;;;5.20;99.90;;;;;;4941774;28;20887;-88
2022/01/27 00:41:38;;;;;;;55.58;35.45;;;5.20;99.90;;;;;;4924838;28;20045;-88
2022/01/27 00:44:05;;;;;;;56.40;35.75;;;5.20;99.90;;;;;;4944328;28;20072;-90
2022/01/27 00:46:32;;;;;;;54.80;35.95;;;5.20;99.90;;;;;;4912721;28;20790;-90
2022/01/27 00:48:57;;;;;;;60.10;37.35;;;5.20;99.90;;;;;;4916112;28;20265;-88
2022/01/27 00:51:27;;;;;;;58.85;33.60;;;5.20;99.90;;;;;;4936441;28;20049;-90
2022/01/27 00:54:16;;;;;;;58.42;36.97;;;5.20;99.90;;;;;;4954426;28;20945;-89
2022/01/27 00:57:22;;;;;;;53.90;36.05;;;5.20;99.90;;;;;;4930931;28;20060;-89
2022/01/27 00:59:56;;;;;;;52.20;34.25;;;5.20;99.90;;;;;;4947095;28;20205;-88
2022/01/27 01:07:59;;;;;;;52.85;35.35;;;5.20;99.90;;;;;;4950309;28;20049;-90
2022/01/27 01:13:52;;;;;;;53.40;34.17;;;5.20;99.90;;;;;;4947613;28;20054;-87
2022/01/27 01:15:47;;;;;;;58.50;35.20;;;5.20;99.90;;;;;;4950344;28;20045;-88
2022/01/27 01:36:55;;;;;;;55.63;34.55;;;5.10;99.90;;;;;;4910076;28;20054;-88
2022/01/27 01:39:26;;;;;;;57.55;35.53;;;5.10;99.90;;;;;;4925184;28;20099;-88
2022/01/27 01:41:52;;;;;;;52.25;35.90;;;5.20;99.90;;;;;;4942869;28;20053;-89
2022/01/27 01:44:22;;;;;;;50.60;36.15;;;5.10;99.90;;;;;;4943592;28;20557;-89
2022/01/27 01:46:48;;;;;;;50.80;34.55;;;5.10;99.90;;;;;;4925374;28;20075;-90
2022/01/27 01:49:14;;;;;;;52.08;35.08;;;5.20;99.90;;;;;;4906017;28;20983;-88
2022/01/27 01:51:44;;;;;;;52.92;35.17;;;5.20;99.90;;;;;;4939091;28;20103;-88
2022/01/27 01:54:11;;;;;;;53.83;35.35;;;5.20;99.90;;;;;;4915095;28;20944;-88
2022/01/27 01:56:38;;;;;;;50.65;35.38;;;5.20;99.90;;;;;;4950799;28;20049;-87
2022/01/27 01:59:05;;;;;;;51.08;34.15;;;5.20;99.90;;;;;;4939424;28;20163;-87
2022/01/27 02:01:32;;;;;;;53.70;35.05;;;5.20;99.90;;;;;;4942978;28;20841;-91
2022/01/27 02:04:04;;;;;;;51.13;35.88;;;5.20;99.90;;;;;;4903734;28;20184;-88
2022/01/27 02:06:38;;;;;;;48.22;34.55;;;5.20;99.90;;;;;;4922576;28;20058;-88
2022/01/27 02:09:51;;;;;;;55.13;36.55;;;5.30;99.90;;;;;;4929169;28;20041;-89
2022/01/27 02:20:11;;;;;;;51.67;34.22;;;5.30;99.90;;;;;;4948470;28;20048;-89
2022/01/27 02:22:37;;;;;;;51.53;35.15;;;5.30;99.90;;;;;;4939108;28;20048;-87
2022/01/27 02:25:04;;;;;;;50.47;33.78;;;5.30;99.90;;;;;;4930701;28;20497;-90
2022/01/27 02:27:33;;;;;;;49.42;34.13;;;5.30;99.90;;;;;;4907810;28;20160;-89
2022/01/27 02:30:02;;;;;;;49.28;34.40;;;5.30;99.90;;;;;;4924637;28;20463;-90
2022/01/27 02:32:28;;;;;;;48.35;33.42;;;5.30;99.90;;;;;;4925496;28;20301;-89
2022/01/27 02:34:53;;;;;;;51.97;34.05;;;5.30;99.90;;;;;;4913750;28;20050;-88
2022/01/27 02:37:21;;;;;;;50.20;33.90;;;5.30;99.90;;;;;;4938206;28;20417;-90
2022/01/27 02:39:47;;;;;;;46.33;32.65;;;5.30;99.90;;;;;;4926520;28;20048;-88
2022/01/27 02:42:16;;;;;;;46.80;33.92;;;5.30;99.90;;;;;;4942820;28;20300;-92
2022/01/27 02:44:54;;;;;;;48.38;31.63;;;5.30;99.90;;;;;;4931832;28;20050;-87
2022/01/27 02:47:22;;;;;;;46.08;30.92;;;5.30;99.90;;;;;;4936915;28;20068;-92
2022/01/27 02:49:49;;;;;;;48.88;34.13;;;5.30;99.90;;;;;;4940340;28;20077;-88
2022/01/27 02:52:18;;;;;;;48.70;31.92;;;5.30;99.90;;;;;;4934037;28;20061;-88
2022/01/27 02:54:44;;;;;;;46.30;31.48;;;5.30;99.90;;;;;;4938577;28;20041;-89
2022/01/27 02:57:10;;;;;;;46.60;33.65;;;5.40;99.90;;;;;;4940743;28;20042;-90
2022/01/27 02:59:36;;;;;;;45.10;31.95;;;5.40;99.90;;;;;;4916145;28;20246;-89
2022/01/27 03:02:03;;;;;;;48.63;32.00;;;5.40;99.90;;;;;;4923368;28;20399;-88
2022/01/27 03:04:30;;;;;;;42.70;30.70;;;5.40;99.90;;;;;;4944635;28;20052;-89
2022/01/27 03:06:58;;;;;;;48.30;31.75;;;5.40;99.90;;;;;;4926799;28;20108;-87
2022/01/27 03:09:24;;;;;;;46.15;31.08;;;5.40;99.90;;;;;;4938703;28;20378;-92
2022/01/27 03:12:12;;;;;;;45.53;31.33;;;5.50;99.90;;;;;;4925818;28;20586;-87
2022/01/27 03:14:43;;;;;;;45.75;30.63;;;5.50;99.90;;;;;;4921732;28;20317;-89
2022/01/27 03:17:10;;;;;;;43.00;29.65;;;5.50;99.90;;;;;;4937767;28;20118;-90
2022/01/27 03:19:37;;;;;;;42.38;29.88;;;5.60;99.90;;;;;;4928144;28;20041;-89
2022/01/27 03:22:04;;;;;;;41.50;29.05;;;5.60;99.90;;;;;;4948443;28;20161;-89
2022/01/27 03:24:31;;;;;;;44.42;29.83;;;5.50;99.90;;;;;;4938053;28;20041;-88
2022/01/27 03:26:58;;;;;;;43.55;30.60;;;5.50;99.90;;;;;;4942699;28;20041;-89
2022/01/27 03:29:25;;;;;;;45.40;30.58;;;5.60;99.90;;;;;;4931170;28;20061;-87
2022/01/27 03:31:51;;;;;;;46.03;30.25;;;5.50;99.90;;;;;;4926041;28;20391;-89
2022/01/27 03:34:17;;;;;;;47.00;31.20;;;5.60;99.90;;;;;;4929748;28;20056;-87
2022/01/27 03:36:46;;;;;;;42.97;30.80;;;5.60;99.90;;;;;;4941700;28;20053;-91
2022/01/27 03:39:17;;;;;;;44.88;30.92;;;5.60;99.90;;;;;;4932107;28;20055;-90
2022/01/27 03:41:49;;;;;;;43.40;29.92;;;5.60;99.90;;;;;;4915168;28;20053;-88
2022/01/27 03:44:15;;;;;;;42.08;29.48;;;5.60;99.90;;;;;;4924872;28;20045;-89
2022/01/27 03:46:41;;;;;;;41.47;29.05;;;5.70;99.90;;;;;;4942414;28;20056;-86
2022/01/27 03:49:07;;;;;;;44.03;29.63;;;5.60;99.90;;;;;;4927322;28;20034;-89
2022/01/27 03:51:35;;;;;;;40.67;29.73;;;5.60;99.90;;;;;;4937633;28;20136;-89
2022/01/27 03:54:04;;;;;;;43.28;29.52;;;5.60;99.90;;;;;;4952473;28;21138;-91
2022/01/27 03:56:32;;;;;;;39.72;29.00;;;5.60;99.90;;;;;;4928201;28;20045;-90
2022/01/27 03:58:58;;;;;;;44.50;29.30;;;5.60;99.90;;;;;;4927799;28;21013;-88
2022/01/27 04:01:24;;;;;;;42.83;29.60;;;5.60;99.90;;;;;;4921935;28;20053;-87
2022/01/27 04:03:56;;;;;;;48.42;30.20;;;5.70;99.90;;;;;;4934442;28;20403;-90
2022/01/27 04:06:31;;;;;;;44.75;29.58;;;5.70;99.90;;;;;;4928947;28;20041;-88
2022/01/27 04:08:57;;;;;;;43.63;30.92;;;5.70;99.90;;;;;;4912472;28;20477;-91
2022/01/27 04:11:23;;;;;;;45.42;29.98;;;5.70;99.90;;;;;;4907902;28;20494;-88
2022/01/27 04:13:48;;;;;;;44.00;30.20;;;5.60;99.90;;;;;;4941472;28;20492;-86
2022/01/27 04:16:14;;;;;;;44.88;30.48;;;5.60;99.90;;;;;;4922562;28;20057;-91
2022/01/27 04:18:42;;;;;;;48.00;31.48;;;5.60;99.90;;;;;;4930374;28;20041;-88
2022/01/27 04:21:08;;;;;;;43.67;30.25;;;5.50;99.90;;;;;;4929527;28;20323;-89
2022/01/27 04:23:34;;;;;;;49.38;32.10;;;5.50;99.90;;;;;;4928505;28;21514;-89
2022/01/27 04:26:04;;;;;;;47.83;31.98;;;5.50;99.90;;;;;;4926643;28;20149;-90
2022/01/27 04:28:32;;;;;;;44.90;30.38;;;5.50;99.90;;;;;;4903425;28;20045;-89
2022/01/27 04:31:01;;;;;;;46.58;31.42;;;5.60;99.90;;;;;;4928179;28;20929;-86
2022/01/27 04:33:30;;;;;;;43.58;29.77;;;5.60;99.90;;;;;;4943160;28;20053;-90
2022/01/27 04:35:59;;;;;;;44.20;30.63;;;5.60;99.90;;;;;;4925917;28;20052;-86
2022/01/27 04:38:35;;;;;;;45.83;30.65;;;5.60;99.90;;;;;;4901615;28;20485;-88
2022/01/27 04:41:17;;;;;;;42.88;30.73;;;5.60;99.90;;;;;;4927419;28;20049;-92
2022/01/27 04:43:59;;;;;;;43.20;29.80;;;5.70;99.90;;;;;;4914063;28;20046;-88
2022/01/27 04:48:55;;;;;;;42.78;29.13;;;5.70;99.90;;;;;;4928438;28;20073;-88
2022/01/27 04:51:23;;;;;;;45.33;30.55;;;5.80;99.90;;;;;;4929204;28;20087;-89
2022/01/27 04:56:33;;;;;;;41.53;29.33;;;5.80;99.90;;;;;;4915393;28;20530;-85
2022/01/27 04:59:04;;;;;;;42.90;29.05;;;5.80;99.90;;;;;;4917583;28;20060;-87
2022/01/27 05:01:38;;;;;;;44.05;29.88;;;5.80;99.90;;;;;;4916036;28;20289;-87
2022/01/27 05:04:16;;;;;;;42.60;29.17;;;5.80;99.90;;;;;;4910823;28;20948;-88
2022/01/27 05:06:42;;;;;;;43.20;28.98;;;5.80;99.90;;;;;;4922641;28;20922;-87
2022/01/27 05:09:08;;;;;;;42.95;29.30;;;5.80;99.90;;;;;;4923267;28;20311;-86
2022/01/27 05:11:46;;;;;;;44.85;29.38;;;5.80;99.90;;;;;;4923134;28;20060;-86
2022/01/27 05:14:17;;;;;;;42.50;28.67;;;5.90;99.90;;;;;;4918381;28;20697;-89
2022/01/27 05:16:43;;;;;;;40.22;27.27;;;5.80;99.90;;;;;;4919878;28;20103;-87
2022/01/27 05:19:09;;;;;;;43.17;29.55;;;5.90;99.90;;;;;;4903682;28;20049;-88
2022/01/27 05:21:35;;;;;;;41.10;28.48;;;5.80;99.90;;;;;;4898492;28;20045;-85
2022/01/27 05:24:02;;;;;;;49.47;30.75;;;5.90;99.90;;;;;;4919230;28;20246;-89
2022/01/27 05:26:28;;;;;;;42.58;29.42;;;5.90;99.90;;;;;;4916239;28;20424;-88
2022/01/27 05:28:55;;;;;;;44.58;29.05;;;5.90;99.90;;;;;;4918229;28;20048;-87
2022/01/27 05:31:20;;;;;;;43.22;29.83;;;5.90;99.90;;;;;;4930443;28;20080;-88
2022/01/27 05:33:47;;;;;;;45.20;29.95;;;5.90;99.90;;;;;;4898504;28;20045;-86
2022/01/27 05:36:13;;;;;;;44.22;29.95;;;5.80;99.90;;;;;;4917077;28;20060;-88
2022/01/27 05:38:39;;;;;;;46.95;30.60;;;5.80;99.90;;;;;;4912938;28;20056;-88
2022/01/27 05:41:10;;;;;;;45.55;30.33;;;5.70;99.90;;;;;;4913069;28;20042;-88
2022/01/27 05:43:35;;;;;;;48.50;29.15;;;5.80;99.90;;;;;;4910129;28;20829;-87
2022/01/27 05:46:01;;;;;;;43.33;28.13;;;5.80;99.90;;;;;;4920924;28;20045;-89
2022/01/27 05:48:27;;;;;;;45.42;29.20;;;5.90;99.90;;;;;;4922932;28;20053;-86
2022/01/27 05:50:53;;;;;;;45.70;28.95;;;5.90;99.90;;;;;;4905377;28;20479;-88
2022/01/27 05:53:19;;;;;;;45.80;29.17;;;5.90;99.90;;;;;;4900254;28;20080;-88
2022/01/27 05:55:45;;;;;;;44.70;28.85;;;5.90;99.90;;;;;;4918838;28;20045;-90
2022/01/27 05:58:10;;;;;;;44.00;28.17;;;5.90;99.90;;;;;;4906732;28;20091;-86
2022/01/27 06:00:36;;;;;;;49.08;30.63;;;5.80;99.90;;;;;;4904406;28;20289;-88
2022/01/27 06:03:04;;;;;;;46.15;30.27;;;5.90;99.90;;;;;;4915190;28;20053;-89
2022/01/27 06:05:30;;;;;;;45.42;29.08;;;5.90;99.90;;;;;;4919320;28;20045;-87
2022/01/27 06:07:56;;;;;;;50.55;31.02;;;5.90;99.90;;;;;;4905415;28;20084;-91
2022/01/27 06:10:22;;;;;;;46.45;30.58;;;5.80;99.90;;;;;;4920651;28;20050;-91
2022/01/27 06:12:53;;;;;;;45.25;30.77;;;5.90;99.90;;;;;;4938386;28;20716;-87
2022/01/27 06:15:20;;;;;;;48.20;28.35;;;5.90;99.90;;;;;;4934836;28;20053;-86
2022/01/27 06:17:47;;;;;;;44.83;29.67;;;5.90;99.90;;;;;;4923336;28;20076;-91
2022/01/27 06:20:14;;;;;;;48.72;30.63;;;5.90;99.90;;;;;;4931035;28;20531;-88
2022/01/27 06:22:40;;;;;;;46.10;30.30;;;5.90;99.90;;;;;;4904229;28;20399;-88
2022/01/27 06:25:06;;;;;;;53.58;31.40;;;5.90;99.90;;;;;;4926859;28;20072;-91
2022/01/27 06:27:35;;;;;;;51.40;31.67;;;5.90;99.90;;;;;;4919559;28;20252;-93
2022/01/27 06:30:02;;;;;;;49.92;32.80;;;5.90;99.90;;;;;;4940121;28;20540;-87
2022/01/27 06:32:28;;;;;;;50.70;31.40;;;5.90;99.90;;;;;;4946811;28;20659;-91
2022/01/27 06:34:56;;;;;;;56.80;32.42;;;5.80;99.90;;;;;;4916291;28;20493;-88
2022/01/27 06:37:22;;;;;;;57.17;35.53;;;5.90;99.90;;;;;;4943115;28;20040;-89
2022/01/27 06:39:57;;;;;;;59.97;33.00;;;5.90;99.90;;;;;;4932196;28;20401;-89
2022/01/27 06:42:23;;;;;;;51.75;32.60;;;5.80;99.90;;;;;;4939209;28;20049;-87
2022/01/27 06:44:48;;;;;;;60.28;35.75;;;5.80;99.90;;;;;;4934416;28;20376;-89
2022/01/27 06:47:14;;;;;;;62.97;35.67;;;5.80;99.90;;;;;;4943021;28;20878;-88
2022/01/27 06:49:40;;;;;;;62.72;34.50;;;5.80;99.90;;;;;;4936063;28;20045;-87
2022/01/27 06:52:07;;;;;;;58.50;34.17;;;5.80;99.90;;;;;;4936008;28;20042;-89
2022/01/27 06:54:35;;;;;;;62.15;35.58;;;5.80;99.90;;;;;;4930446;28;20131;-90
2022/01/27 06:57:01;;;;;;;62.90;36.60;;;5.80;99.90;;;;;;4947068;28;20045;-88
2022/01/27 06:59:28;;;;;;;65.60;36.08;;;5.80;99.90;;;;;;4913407;28;20049;-90
2022/01/27 07:01:53;;;;;;;70.15;38.33;;;5.80;99.90;;;;;;4927894;28;20239;-88
2022/01/27 07:04:19;;;;;;;73.25;38.35;;;5.90;99.90;;;;;;4935304;28;20381;-90
2022/01/27 07:06:47;;;;;;;68.25;37.78;;;5.80;99.90;;;;;;4929838;28;20398;-92
2022/01/27 07:09:13;;;;;;;73.72;37.78;;;5.90;99.90;;;;;;4939132;28;20049;-92
2022/01/27 07:11:42;;;;;;;69.80;37.33;;;5.80;99.90;;;;;;4921081;28;20096;-90
2022/01/27 07:14:08;;;;;;;71.07;37.65;;;5.90;99.90;;;;;;4923974;28;20048;-90
2022/01/27 07:16:34;;;;;;;69.13;37.58;;;5.80;99.90;;;;;;4967336;28;20048;-88
2022/01/27 07:19:00;;;;;;;70.50;37.65;;;5.90;99.90;;;;;;4920544;28;20717;-90
2022/01/27 07:21:26;;;;;;;66.63;36.53;;;5.90;99.90;;;;;;4964053;28;20483;-89
2022/01/27 07:23:52;;;;;;;66.60;37.08;;;5.90;99.90;;;;;;4949551;28;20049;-89
2022/01/27 07:26:24;;;;;;;64.93;36.30;;;6.00;99.90;;;;;;4944594;28;20080;-89
2022/01/27 07:28:54;;;;;;;60.08;33.60;;;6.00;99.90;;;;;;4922355;28;20100;-88
2022/01/27 07:31:20;;;;;;;66.07;33.30;;;6.00;99.90;;;;;;4943749;28;21008;-89
2022/01/27 07:33:48;;;;;;;71.35;35.10;;;6.00;99.90;;;;;;4929475;28;20820;-88
2022/01/27 07:36:17;;;;;;;71.60;35.50;;;6.10;99.90;;;;;;4922864;28;20061;-87
2022/01/27 07:38:44;;;;;;;62.10;34.17;;;6.10;99.90;;;;;;4921129;28;20053;-86
2022/01/27 07:41:12;;;;;;;65.32;33.50;;;6.10;99.90;;;;;;4952083;28;20073;-89
2022/01/27 07:43:41;;;;;;;61.72;34.17;;;6.10;99.90;;;;;;4949345;28;20053;-91
2022/01/27 07:46:07;;;;;;;62.15;32.65;;;6.20;99.90;;;;;;4944788;28;20041;-89
2022/01/27 07:48:33;;;;;;;61.83;33.15;;;6.20;99.90;;;;;;4933739;28;20050;-86
2022/01/27 07:51:02;;;;;;;54.35;29.90;;;6.20;99.90;;;;;;4923237;28;20068;-86
2022/01/27 07:53:28;;;;;;;52.45;28.83;;;6.20;99.90;;;;;;4944348;28;20394;-90
2022/01/27 07:55:54;;;;;;;58.03;29.42;;;6.30;99.90;;;;;;4949103;28;20942;-89
2022/01/27 07:58:20;;;;;;;47.30;26.58;;;6.40;99.90;;;;;;4947506;28;20128;-91
2022/01/27 08:00:46;;;;;;;51.30;27.83;;;6.40;99.90;;;;;;4931591;28;20041;-90
2022/01/27 08:03:11;;;;;;;52.50;26.95;;;6.50;99.90;;;;;;4915400;28;20274;-89
2022/01/27 08:05:37;;;;;;;42.75;24.65;;;6.50;99.90;;;;;;4928446;28;20537;-86
2022/01/27 08:08:04;;;;;;;41.20;24.40;;;6.60;99.90;;;;;;4955369;28;20615;-89
2022/01/27 08:10:37;;;;;;;42.40;23.58;;;6.60;99.90;;;;;;4912929;28;20183;-89
2022/01/27 08:13:04;;;;;;;38.95;22.27;;;6.60;99.90;;;;;;4940883;28;20053;-89
2022/01/27 08:15:30;;;;;;;45.25;24.27;;;6.60;99.90;;;;;;4938731;28;20041;-93
2022/01/27 08:17:56;;;;;;;41.25;23.52;;;6.70;99.90;;;;;;4950603;28;20882;-87
2022/01/27 08:20:22;;;;;;;37.25;22.27;;;6.70;99.90;;;;;;4923157;28;20046;-89
2022/01/27 08:22:50;;;;;;;36.92;22.35;;;6.80;99.90;;;;;;4946065;28;20417;-87
2022/01/27 08:25:22;;;;;;;31.92;20.88;;;6.80;99.90;;;;;;4928298;28;20064;-89
2022/01/27 08:27:52;;;;;;;32.90;21.00;;;6.80;99.90;;;;;;4944500;28;20049;-89
2022/01/27 08:30:19;;;;;;;35.25;22.08;;;6.90;99.90;;;;;;4918428;28;20425;-87
2022/01/27 08:35:18;;;;;;;35.33;22.23;;;6.90;99.90;;;;;;4945021;28;20164;-87
2022/01/27 08:37:44;;;;;;;39.47;22.38;;;7.00;99.90;;;;;;4959640;28;20053;-87
2022/01/27 08:40:21;;;;;;;34.67;22.35;;;7.00;99.90;;;;;;4929934;28;20590;-91
2022/01/27 08:42:47;;;;;;;38.03;23.25;;;7.00;99.90;;;;;;4939482;28;20918;-88
2022/01/27 08:45:16;;;;;;;41.17;24.35;;;7.00;99.90;;;;;;4922559;28;20045;-88
2022/01/27 08:47:46;;;;;;;35.75;23.02;;;7.00;99.90;;;;;;4925040;28;20533;-93
2022/01/27 08:50:14;;;;;;;38.20;24.35;;;7.00;99.90;;;;;;4941335;28;20493;-90
2022/01/27 08:52:41;;;;;;;45.50;25.25;;;7.10;99.90;;;;;;4939536;28;20045;-88
2022/01/27 08:55:08;;;;;;;40.50;24.25;;;7.10;99.90;;;;;;4937679;28;20052;-89
2022/01/27 08:57:38;;;;;;;41.95;24.25;;;7.10;99.90;;;;;;4920959;28;20752;-89
2022/01/27 09:00:06;;;;;;;38.95;24.23;;;7.10;99.90;;;;;;4945731;28;20044;-90
2022/01/27 09:02:32;;;;;;;40.58;25.15;;;7.10;99.90;;;;;;4940581;28;21015;-89
2022/01/27 09:05:01;;;;;;;39.38;24.70;;;7.10;99.90;;;;;;4942412;28;20503;-88
2022/01/27 09:07:27;;;;;;;45.40;24.35;;;7.20;99.90;;;;;;4941269;28;20049;-89
2022/01/27 09:09:53;;;;;;;42.15;24.83;;;7.20;99.90;;;;;;4920362;28;20045;-89
2022/01/27 09:12:18;;;;;;;44.47;25.45;;;7.20;99.90;;;;;;4926364;28;20072;-89
2022/01/27 09:14:45;;;;;;;38.15;23.35;;;7.30;99.90;;;;;;4915151;28;21157;-88
2022/01/27 09:17:13;;;;;;;38.80;24.67;;;7.30;99.90;;;;;;4946986;28;20798;-92
2022/01/27 09:19:41;;;;;;;40.88;23.48;;;7.30;99.90;;;;;;4942190;28;20121;-88
2022/01/27 09:22:13;;;;;;;41.58;25.27;;;7.30;99.90;;;;;;4931218;28;20053;-90
2022/01/27 09:24:59;;;;;;;43.05;23.50;;;7.40;99.90;;;;;;4923440;28;20121;-89
2022/01/27 09:27:26;;;;;;;33.70;21.02;;;7.40;99.90;;;;;;4918861;28;20481;-87
2022/01/27 09:29:54;;;;;;;40.53;22.73;;;7.50;99.90;;;;;;4943538;28;20211;-89
2022/01/27 09:32:25;;;;;;;39.65;22.92;;;7.50;99.90;;;;;;4930579;28;20091;-89
2022/01/27 09:34:52;;;;;;;41.50;23.25;;;7.60;99.90;;;;;;4941825;28;20582;-88
2022/01/27 09:37:20;;;;;;;36.38;21.92;;;7.60;99.90;;;;;;4925868;28;20797;-87
2022/01/27 09:39:48;;;;;;;39.50;23.92;;;7.60;99.90;;;;;;4925888;28;20068;-88
2022/01/27 09:42:15;;;;;;;40.35;23.00;;;7.60;99.90;;;;;;4928807;28;20049;-88
2022/01/27 09:44:44;;;;;;;38.30;22.42;;;7.70;99.90;;;;;;4933683;28;20545;-89
2022/01/27 09:47:15;;;;;;;39.75;20.83;;;7.60;99.90;;;;;;4929470;28;20553;-89
2022/01/27 09:49:49;;;;;;;37.33;20.20;;;7.70;99.90;;;;;;4933520;28;20115;-90
2022/01/27 09:52:16;;;;;;;38.78;20.55;;;7.70;99.90;;;;;;4939625;28;20049;-87
2022/01/27 09:54:45;;;;;;;40.72;21.20;;;7.70;99.90;;;;;;4942757;28;20784;-89
2022/01/27 09:57:11;;;;;;;35.15;19.95;;;7.80;99.90;;;;;;4938951;28;20060;-89
2022/01/27 09:59:37;;;;;;;35.85;19.77;;;7.90;99.90;;;;;;4962507;28;20045;-91
2022/01/27 10:02:13;;;;;;;31.98;20.13;;;8.00;99.90;;;;;;4950232;28;20652;-93
2022/01/27 10:04:43;;;;;;;36.08;18.85;;;8.10;99.90;;;;;;4944104;28;20045;-90
2022/01/27 10:07:10;;;;;;;37.75;18.23;;;8.20;99.90;;;;;;4912117;28;20077;-90
2022/01/27 10:09:36;;;;;;;32.03;17.23;;;8.30;99.90;;;;;;4937586;28;20041;-87
2022/01/27 10:12:05;;;;;;;36.78;17.13;;;8.30;99.90;;;;;;4948345;28;20064;-89
2022/01/27 10:14:36;;;;;;;31.30;16.48;;;8.30;99.90;;;;;;4988543;28;20259;-90
2022/01/27 10:17:13;;;;;;;29.95;15.63;;;8.30;99.90;;;;;;4988685;28;20063;-90
2022/01/27 10:19:40;;;;;;;31.38;15.55;;;8.30;99.90;;;;;;4973812;28;20361;-90
2022/01/27 10:22:11;;;;;;;28.75;15.25;;;8.30;99.90;;;;;;4975657;28;20338;-93
2022/01/27 10:24:37;;;;;;;29.33;14.85;;;8.40;99.90;;;;;;4996240;28;20095;-91
2022/01/27 10:27:45;;;;;;;27.90;14.38;;;8.40;99.90;;;;;;4992843;28;20806;-90
2022/01/27 10:33:15;;;;;;;26.85;13.32;;;8.50;99.90;;;;;;4980868;28;20526;-93
2022/01/27 10:35:41;;;;;;;27.77;12.52;;;8.50;99.90;;;;;;4979225;28;20052;-90
2022/01/27 10:38:09;;;;;;;27.38;12.30;;;8.50;99.90;;;;;;4963198;28;20323;-94
2022/01/27 10:40:44;;;;;;;27.20;11.50;;;8.60;99.90;;;;;;4998943;28;20110;-88
2022/01/27 10:43:11;;;;;;;25.75;11.00;;;8.60;99.90;;;;;;4993565;28;20275;-87
2022/01/27 10:45:58;;;;;;;25.05;10.70;;;8.60;99.90;;;;;;4998233;28;20386;-91
2022/01/27 10:48:28;;;;;;;27.88;11.65;;;8.60;99.90;;;;;;4995012;28;20045;-91
2022/01/27 10:51:01;;;;;;;28.00;10.60;;;8.70;99.90;;;;;;4976553;28;20375;-89
2022/01/27 10:53:51;;;;;;;32.13;10.63;;;8.60;99.90;;;;;;4994650;28;20071;-90
2022/01/27 10:56:29;;;;;;;25.65;10.57;;;8.70;99.90;;;;;;4992548;28;20135;-92
2022/01/27 10:58:57;;;;;;;26.35;11.23;;;8.70;99.90;;;;;;4993584;28;20096;-91
2022/01/27 11:01:33;;;;;;;25.48;10.50;;;8.60;99.90;;;;;;4996500;28;20057;-92
2022/01/27 11:04:04;;;;;;;25.10;10.57;;;8.60;99.90;;;;;;4995306;28;20183;-93
2022/01/27 11:06:32;;;;;;;25.40;10.52;;;8.60;99.90;;;;;;4975047;28;20709;-89
2022/01/27 11:09:08;;;;;;;26.90;10.45;;;8.60;99.90;;;;;;4995739;28;20040;-90
2022/01/27 11:11:39;;;;;;;24.52;10.73;;;8.60;99.90;;;;;;4952013;28;20854;-91
2022/01/27 11:14:05;;;;;;;25.05;10.18;;;8.60;99.90;;;;;;4934290;28;20045;-91
2022/01/27 11:16:38;;;;;;;25.20;10.82;;;8.60;99.90;;;;;;4939445;28;20051;-94
2022/01/27 11:22:02;;;;;;;25.25;9.32;;;8.60;99.90;;;;;;4927237;28;20448;-87
2022/01/27 11:24:43;;;;;;;20.63;8.80;;;8.60;99.90;;;;;;4941897;28;20049;-88
2022/01/27 11:27:19;;;;;;;;;;;8.60;99.90;;;;;;4960098;28;20818;-91
2022/01/27 11:29:56;;;;;;;23.00;8.65;;;8.60;99.90;;;;;;4920433;28;19947;-87
2022/01/27 11:32:50;;;;;;;22.33;9.13;;;8.60;99.90;;;;;;4944706;28;20628;-92
2022/01/27 11:35:22;;;;;;;26.13;9.25;;;8.70;99.90;;;;;;4943644;28;20049;-92
2022/01/27 11:37:50;;;;;;;21.90;8.55;;;8.70;99.90;;;;;;4942245;28;20827;-90
2022/01/27 11:40:18;;;;;;;21.10;9.00;;;8.70;99.90;;;;;;4944700;28;20426;-91
2022/01/27 11:42:56;;;;;;;21.77;8.38;;;8.80;99.90;;;;;;4943871;28;20049;-89
2022/01/27 11:45:28;;;;;;;24.00;8.43;;;8.80;99.90;;;;;;4938568;28;20059;-90
2022/01/27 11:48:02;;;;;;;24.33;9.32;;;8.80;99.90;;;;;;4943288;28;20128;-88
2022/01/27 11:53:45;;;;;;;24.05;8.27;;;8.90;99.90;;;;;;4959572;28;20060;-92
2022/01/27 11:56:36;;;;;;;24.63;8.43;;;8.90;99.90;;;;;;4962507;28;20181;-91
2022/01/27 11:59:08;;;;;;;21.17;8.07;;;9.00;99.90;;;;;;4956101;28;20384;-91
2022/01/27 12:01:40;;;;;;;18.75;8.25;;;9.00;99.90;;;;;;4944205;28;20037;-93
2022/01/27 12:04:15;;;;;;;26.00;8.40;;;9.00;99.90;;;;;;4969626;28;20652;-92
2022/01/27 12:06:50;;;;;;;20.25;8.15;;;9.00;99.90;;;;;;4950717;28;20569;-88
2022/01/27 12:09:22;;;;;;;20.52;7.57;;;9.00;99.90;;;;;;4945151;28;20049;-90
2022/01/27 12:12:26;;;;;;;22.90;7.85;;;9.00;99.90;;;;;;4933599;28;20073;-89
2022/01/27 12:15:00;;;;;;;19.42;7.03;;;9.00;99.90;;;;;;4958717;28;20433;-92
2022/01/27 12:17:28;;;;;;;23.45;7.05;;;9.00;99.90;;;;;;4953060;28;20053;-90
2022/01/27 12:20:08;;;;;;;21.10;6.88;;;9.10;99.90;;;;;;4933737;28;20045;-95
2022/01/27 12:22:42;;;;;;;18.75;5.47;;;9.20;99.90;;;;;;4949935;28;20045;-87
2022/01/27 12:25:10;;;;;;;16.80;4.85;;;9.20;99.90;;;;;;4938827;28;21857;-89
2022/01/27 12:27:37;;;;;;;15.52;5.00;;;9.40;99.90;;;;;;4917482;28;20152;-93
2022/01/27 12:30:06;;;;;;;18.33;5.22;;;9.40;99.90;;;;;;4960165;28;20065;-90
2022/01/27 12:32:33;;;;;;;19.17;5.50;;;9.50;99.90;;;;;;4944601;28;20691;-93
2022/01/27 12:35:02;;;;;;;20.08;4.93;;;9.50;99.90;;;;;;4954563;28;20867;-92
2022/01/27 12:37:35;;;;;;;17.88;5.25;;;9.50;99.90;;;;;;4951024;28;20045;-91
2022/01/27 12:40:22;;;;;;;15.73;4.97;;;9.60;99.90;;;;;;4974624;28;20048;-90
2022/01/27 12:43:07;;;;;;;18.20;5.40;;;9.60;99.90;;;;;;4941237;28;20049;-92
2022/01/27 12:45:37;;;;;;;18.45;5.15;;;9.60;99.90;;;;;;4944954;28;20132;-90
2022/01/27 12:48:11;;;;;;;15.75;4.68;;;9.60;99.90;;;;;;4937762;28;20851;-92
2022/01/27 12:50:37;;;;;;;16.75;4.88;;;9.60;99.90;;;;;;4934041;28;20056;-91
2022/01/27 12:53:12;;;;;;;18.63;4.70;;;9.60;99.90;;;;;;4943788;28;20159;-92
2022/01/27 12:55:42;;;;;;;16.35;4.75;;;9.50;99.90;;;;;;4935322;28;20974;-95
2022/01/27 12:58:17;;;;;;;17.75;4.72;;;9.60;99.90;;;;;;4941457;28;20365;-92
2022/01/27 13:00:45;;;;;;;16.27;4.00;;;9.60;99.90;;;;;;4955169;28;20045;-90
2022/01/27 13:03:14;;;;;;;15.27;3.95;;;9.60;99.90;;;;;;4938338;28;20389;-92
2022/01/27 13:05:49;;;;;;;12.82;3.42;;;9.60;99.90;;;;;;4976200;28;20048;-91
2022/01/27 13:08:33;;;;;;;16.23;4.13;;;9.60;99.90;;;;;;4965040;28;20514;-90
2022/01/27 13:11:04;;;;;;;;;;;9.70;99.90;;;;;;4954608;28;20140;-94
2022/01/27 13:13:37;;;;;;;15.77;3.45;;;9.70;99.90;;;;;;4955444;28;20409;-91
2022/01/27 13:16:13;;;;;;;16.95;3.45;;;9.60;99.90;;;;;;4951164;28;20570;-92
2022/01/27 13:21:07;;;;;;;25.23;4.65;;;9.60;99.90;;;;;;4951630;28;20064;-88
2022/01/27 13:23:36;;;;;;;16.58;3.55;;;9.60;99.90;;;;;;4957142;28;20053;-91
2022/01/27 13:26:07;;;;;;;15.35;3.05;;;9.70;99.90;;;;;;4940527;28;20202;-93
2022/01/27 13:28:40;;;;;;;17.02;3.38;;;9.60;99.90;;;;;;4936451;28;20800;-91
2022/01/27 13:31:14;;;;;;;14.90;3.28;;;9.60;99.90;;;;;;4937172;28;20762;-91
2022/01/27 13:33:39;;;;;;;;;;;9.70;99.90;;;;;;4945440;28;20163;-90
2022/01/27 13:36:08;;;;;;;16.00;3.15;;;9.70;99.90;;;;;;4938460;28;19932;-92
2022/01/27 13:38:49;;;;;;;19.13;3.08;;;9.70;99.90;;;;;;4957847;28;20425;-86
2022/01/27 13:41:24;;;;;;;19.10;3.72;;;9.70;99.90;;;;;;4969314;28;20080;-91
2022/01/27 13:43:53;;;;;;;18.20;3.15;;;9.70;99.90;;;;;;4934898;28;20041;-89
2022/01/27 13:46:38;;;;;;;18.65;3.35;;;9.70;99.90;;;;;;4932473;28;20059;-91
2022/01/27 13:49:04;;;;;;;17.70;3.60;;;9.70;99.90;;;;;;4934518;28;20388;-89